Tiempo atmosférico en la estación meteorológica de Vega de San Mateo, Las Palmas (1702 m.)



Fecha
DESCASC
Temp. máxima en grados centígrados (hora)
DESCASC
Temp. mínima en grados centígrados (hora)
DESCASC
Temp. media en grados centígrados
DESCASC
Racha de viento máxima en m/sg (hora)
DESCASC
Velocidad máxima media en intervalos de 10 minutos(hora)
DESCASC
Precipitaciones diarias en mm
DESCASC
Precipitaciones de 00:00 a 06:00 en mm
DESCASC
Precipitaciones de 06:00 a 12:00 en mm
DESCASC
Precipitaciones de 12:00 a 18:00 en mm
DESCASC
Precipitaciones de 18:00 a 24:00 en mm
DESCASC
20-10-2019 -- (--) -- (--) -- -- (--) -- (--) -- 0 0 -- 9.4
19-10-2019 21.3 (14:10) 12.1 (23:20) 16.7 5.56 (11:40) 3.33 (15:40) 0 0 0 0 0
18-10-2019 21.9 (12:00) 10.9 (02:40) 16.4 6.94 (18:20) 3.61 (18:20) 0 0 0 0 0
17-10-2019 19.6 (12:10) 12.2 (00:00) 15.9 5.56 (08:20) 3.33 (08:20) 0 0 0 0 0
16-10-2019 18 (17:10) 10.5 (00:00) 14.3 7.5 (18:00) 5 (18:10) 0.2 0 0.2 0 0
15-10-2019 -- (--) -- (--) -- -- (--) -- (--) -- 0 0 -- 0
14-10-2019 18.3 (14:30) 7.8 (00:00) 13 6.39 (14:30) 3.61 (14:40) 0 0 0 0 0
13-10-2019 18.9 (09:40) 8.8 (00:00) 13.8 8.89 (13:30) 4.72 (13:40) 0 0 0 0 0
12-10-2019 18.9 (13:30) 8.9 (00:00) 13.9 5.56 (14:10) 3.33 (14:10) 0 0 0 0 0
11-10-2019 19 (12:20) 10.5 (00:00) 14.8 8.06 (08:00) 4.44 (17:00) 0 0 0 0 0
10-10-2019 20.6 (11:00) 10.8 (00:00) 15.7 7.22 (14:50) 3.89 (14:50) 0 0 0 0 0
09-10-2019 23.6 (12:20) 12.1 (00:00) 17.9 6.11 (14:50) 3.61 (16:30) 0 0 0 0 0
08-10-2019 25.3 (12:50) 16.3 (00:00) 20.8 8.61 (13:10) 5.56 (13:20) 0 0 0 0 0
07-10-2019 26.4 (15:40) 15.2 (00:00) 20.8 9.17 (12:40) 4.17 (15:20) 0 0 0 0 0
06-10-2019 24.7 (11:30) 15.2 (00:00) 20 9.17 (02:50) 4.17 (02:20) 0 0 0 0 0
05-10-2019 20.1 (13:00) 14.4 (00:00) 17.3 11.39 (10:50) 6.11 (06:40) 0 0 0 0 0
04-10-2019 23.4 (16:20) 15.6 (00:00) 19.5 11.39 (08:50) 5.56 (23:40) 0 0 0 0 0
03-10-2019 25 (14:00) 16.5 (00:00) 20.8 8.89 (23:00) 3.61 (05:30) 0 0 0 0 0
02-10-2019 28.3 (13:20) 20.5 (00:00) 24.4 6.67 (12:10) 3.33 (14:10) 0 0 0 0 0
01-10-2019 30.4 (16:40) 19.9 (00:00) 25.1 6.11 (13:10) 2.78 (11:40) 0 0 0 0 0
30-09-2019 30.4 (16:30) 21.4 (00:00) 25.9 8.06 (10:20) 5 (06:10) 0 0 0 0 0
29-09-2019 28.2 (13:10) 18.9 (00:00) 23.6 6.67 (13:50) 4.17 (21:10) 0 0 0 0 0
28-09-2019 27.5 (15:20) 19.6 (00:00) 23.6 8.06 (15:50) 4.44 (15:30) 0 0 0 0 0
27-09-2019 26.6 (12:00) 20.2 (00:00) 23.4 9.72 (12:30) 4.72 (03:20) 0 0 0 0 0
26-09-2019 26.8 (13:20) 15.6 (00:00) 21.2 10 (16:20) 4.72 (13:50) 0 0 0 0 0
25-09-2019 24.8 (18:40) 13.9 (00:00) 19.3 5.83 (01:40) 3.33 (01:30) 0 0 0 0 0
24-09-2019 21.9 (15:10) 11.7 (00:00) 16.8 6.11 (14:50) 3.89 (22:40) 0 0 0 0 0
23-09-2019 22.5 (13:20) 11.7 (00:00) 17.1 6.11 (16:00) 3.61 (15:50) 0 0 0 0 0
22-09-2019 21.2 (17:50) 12.7 (00:00) 17 7.5 (21:10) 4.17 (21:30) 1.6 0 0 0 1.6

Gráficas

Temp. máximas Temp. mínimas Temp. medias Precipitaciones Rachas de viento máximas Velocidades máximas media en intervalos de 10 minutos

Datos horarios

Fecha y hora oficial Temperatura (ºC) Velocidad del viento (km/h) Dirección del viento Racha (km/h) Dirección de racha Precipitación (mm) Presión (hPa) Tendencia (hPa) Humedad (%)
2019-10-21 23:00:00 6.5 9 Sudeste 28 Este 0 -- -- 100
2019-10-21 22:00:00 5.8 16 Este 41 Este 0 -- -- 100
2019-10-21 21:00:00 5.7 12 Este 39 Sudeste 0.2 -- -- 99
2019-10-21 20:00:00 6.1 11 Este 26 Este 0 -- -- 100
2019-10-21 19:00:00 6.4 7 Sur 28 Noroeste 0 -- -- 99
2019-10-21 18:00:00 6.9 9 Noroeste 21 Noroeste 0 -- -- 99
2019-10-21 17:00:00 7.5 6 Sudoeste 26 Noroeste 0.8 -- -- 99
2019-10-21 16:00:00 7.7 6 Sudoeste 24 Noroeste 0 -- -- 99
2019-10-21 15:00:00 7.8 6 Sudoeste 23 Noroeste 0 -- -- 100
2019-10-21 14:00:00 7.2 6 Sudoeste 23 Noroeste 0.4 -- -- 99
2019-10-21 13:00:00 7.8 5 Sudoeste 17 Este 0.8 -- -- 99
2019-10-21 12:00:00 7.6 8 Este 22 Este 0.4 -- -- 99
2019-10-21 11:00:00 7.2 14 Este 31 Este 0.2 -- -- 99
2019-10-21 10:00:00 6.2 18 Este 36 Este 0 -- -- 98
2019-10-21 09:00:00 5.9 17 Este 29 Este 0.2 -- -- 99
2019-10-21 08:00:00 6.8 12 Este 32 Este 0.2 -- -- 99
2019-10-21 07:00:00 6.6 7 Este 23 Este 0.4 -- -- 99
2019-10-21 06:00:00 7 6 Este 20 Sudeste 0 -- -- 99
2019-10-21 05:00:00 6.4 6 Este 17 Este 0 -- -- 99
2019-10-21 04:00:00 7.2 7 Este 18 Este 0 -- -- 99
2019-10-21 03:00:00 8.3 5 Sudeste 15 Este 0.2 -- -- 99
2019-10-21 02:00:00 8 4 Norte 19 Nordeste 0 -- -- 99
2019-10-21 01:00:00 8.3 6 Este 16 Nordeste 0.2 -- -- 98
2019-10-21 00:00:00 8.5 6 Nordeste 17 Norte 0.4 -- -- 98
2019-10-20 23:00:00 9.3 5 Este 19 Este 1.4 -- -- 98
2019-10-20 22:00:00 9.4 5 Sudeste 18 Este 1.2 -- -- 98
2019-10-20 21:00:00 9.9 6 Sudeste 17 Este 1.8 -- -- 98
2019-10-20 20:00:00 10 8 Este 20 Sudeste 1.8 -- -- 97
2019-10-20 19:00:00 10.4 10 Este 22 Este 2.8 -- -- 97
2019-10-20 18:00:00 11.8 6 Sudeste 22 Sudeste 3.4 -- -- 96
2019-10-20 17:00:00 12.2 12 Este 27 Este 1.8 -- -- 96
2019-10-20 16:00:00 14.2 7 Este 21 Nordeste 0 -- -- 80
2019-10-20 15:00:00 15.4 8 Nordeste 24 Este 0 -- -- 70
2019-10-20 14:00:00 -- -- -- -- -- -- -- -- --
2019-10-20 13:00:00 15 9 Este 20 Sudeste 0 -- -- 69
2019-10-20 12:00:00 14.2 8 Nordeste 16 Este 0 -- -- 70
2019-10-20 11:00:00 13.6 7 Nordeste 17 Nordeste 0 -- -- 77
2019-10-20 10:00:00 12.1 10 Este 22 Este 0 -- -- 83
2019-10-20 09:00:00 9.5 11 Nordeste 24 Nordeste 0 -- -- 96
2019-10-20 08:00:00 9 11 Nordeste 24 Este 0 -- -- 95
2019-10-20 07:00:00 9.2 7 Nordeste 16 Nordeste 0 -- -- 87
2019-10-20 06:00:00 11.4 5 Nordeste 12 Nordeste 0 -- -- 31
2019-10-20 05:00:00 12.3 8 Nordeste 13 Nordeste 0 -- -- 30
2019-10-20 04:00:00 10.9 6 Nordeste 17 Este 0 -- -- 36
2019-10-20 03:00:00 10.3 4 Nordeste 13 Nordeste 0 -- -- 40
2019-10-20 02:00:00 11.6 3 Este 5 Este 0 -- -- 32
2019-10-20 01:00:00 12 0 Calma 4 Norte 0 -- -- 32
2019-10-20 00:00:00 12.3 0 Calma 5 Sudeste 0 -- -- 34
2019-10-19 23:00:00 12.4 0 Calma 0 Calma 0 -- -- 34
2019-10-19 22:00:00 12.7 0 Calma 3 Este 0 -- -- 36
2019-10-19 21:00:00 12.7 0 Calma 4 Sudeste 0 -- -- 36
2019-10-19 20:00:00 14 0 Calma 8 Sudoeste 0 -- -- 50
2019-10-19 19:00:00 18.9 4 Oeste 12 Oeste 0 -- -- 58
2019-10-19 18:00:00 19.3 6 Oeste 14 Noroeste 0 -- -- 58
2019-10-19 17:00:00 19.3 8 Oeste 18 Oeste 0 -- -- 63
2019-10-19 16:00:00 19.2 9 Noroeste 18 Oeste 0 -- -- 63
2019-10-19 15:00:00 19 10 Oeste 17 Oeste 0 -- -- 62
2019-10-19 14:00:00 20.8 6 Oeste 14 Este 0 -- -- 44
2019-10-19 13:00:00 21.1 4 Este 19 Este 0 -- -- 31
2019-10-19 12:00:00 20.7 8 Nordeste 20 Nordeste 0 -- -- 28
2019-10-19 11:00:00 19.2 10 Este 17 Este 0 -- -- 22
2019-10-19 10:00:00 20.9 4 Nordeste 13 Nordeste 0 -- -- 16
2019-10-19 09:00:00 16.1 3 Nordeste 9 Nordeste 0 -- -- 25
2019-10-19 08:00:00 12.6 2 Este 6 Nordeste 0 -- -- 32
2019-10-19 07:00:00 13.4 4 Este 10 Nordeste 0 -- -- 37
2019-10-19 06:00:00 13.9 3 Este 10 Nordeste 0 -- -- 37
2019-10-19 05:00:00 13.4 6 Este 13 Este 0 -- -- 38
2019-10-19 04:00:00 13.4 6 Este 12 Este 0 -- -- 41
2019-10-19 03:00:00 14.1 7 Este 16 Nordeste 0 -- -- 39
2019-10-19 02:00:00 14.5 8 Este 16 Este 0 -- -- 36
2019-10-19 01:00:00 15.4 9 Este 18 Nordeste 0 -- -- 32
2019-10-19 00:00:00 15.3 10 Este 20 Este 0 -- -- 28
2019-10-18 23:00:00 15.6 11 Este 22 Este 0 -- -- 25
2019-10-18 22:00:00 15.8 11 Este 22 Este 0 -- -- 11
2019-10-18 21:00:00 15.8 10 Este 22 Sudeste 0 -- -- 7
2019-10-18 20:00:00 16.1 10 Este 20 Este 0 -- -- 6
2019-10-18 19:00:00 18.7 10 Este 25 Este 0 -- -- 7
2019-10-18 18:00:00 20 9 Nordeste 19 Nordeste 0 -- -- 16
2019-10-18 17:00:00 20.3 6 Este 14 Nordeste 0 -- -- 14
2019-10-18 16:00:00 20.1 5 Este 15 Oeste 0 -- -- 23
2019-10-18 15:00:00 20.5 5 Nordeste 14 Este 0 -- -- 23
2019-10-18 14:00:00 20.7 6 Este 16 Nordeste 0 -- -- 22
2019-10-18 13:00:00 19.9 9 Este 17 Este 0 -- -- 27
2019-10-18 12:00:00 21.9 5 Este 13 Nordeste 0 -- -- 19
2019-10-18 11:00:00 20.5 6 Este 13 Nordeste 0 -- -- 18
2019-10-18 10:00:00 19.5 7 Este 15 Este 0 -- -- 19
2019-10-18 09:00:00 16.2 6 Este 13 Este 0 -- -- 4
2019-10-18 08:00:00 12 6 Nordeste 9 Este 0 -- -- 7
2019-10-18 07:00:00 11.7 4 Nordeste 8 Nordeste 0 -- -- 6
2019-10-18 06:00:00 13 4 Nordeste 12 Nordeste 0 -- -- 7
2019-10-18 05:00:00 13 5 Norte 13 Nordeste 0 -- -- 11
2019-10-18 04:00:00 13 6 Norte 14 Noroeste 0 -- -- 26
2019-10-18 03:00:00 11.7 2 Norte 13 Norte 0 -- -- 38
2019-10-18 02:00:00 13.9 6 Noroeste 15 Noroeste 0 -- -- 45
2019-10-18 01:00:00 13 3 Nordeste 13 Norte 0 -- -- 35
2019-10-18 00:00:00 13.9 3 Noroeste 12 Noroeste 0 -- -- 34
2019-10-17 23:00:00 12.8 2 Noroeste 6 Norte 0 -- -- 16
2019-10-17 22:00:00 13.2 0 Calma 12 Noroeste 0 -- -- 15
2019-10-17 21:00:00 14.5 4 Este 8 Nordeste 0 -- -- 15
2019-10-17 20:00:00 14.4 3 Este 16 Nordeste 0 -- -- 17
2019-10-17 19:00:00 16.6 5 Noroeste 10 Noroeste 0 -- -- 36
2019-10-17 18:00:00 16.7 4 Oeste 15 Sudoeste 0 -- -- 59
2019-10-17 17:00:00 18.1 9 Oeste 19 Noroeste 0 -- -- 52
2019-10-17 16:00:00 18.2 10 Oeste 16 Oeste 0 -- -- 55
2019-10-17 15:00:00 18.3 9 Oeste 17 Oeste 0 -- -- 56
2019-10-17 14:00:00 18.7 9 Oeste 16 Oeste 0 -- -- 47
2019-10-17 13:00:00 19 9 Oeste 15 Oeste 0 -- -- 39
2019-10-17 12:00:00 19.3 9 Oeste 19 Oeste 0 -- -- 37
2019-10-17 11:00:00 18.4 9 Oeste 17 Oeste 0 -- -- 39
2019-10-17 10:00:00 17.9 9 Oeste 19 Oeste 0 -- -- 41
2019-10-17 09:00:00 15.3 11 Oeste 20 Oeste 0 -- -- 53
2019-10-17 08:00:00 14 10 Oeste 14 Oeste 0 -- -- 59
2019-10-17 07:00:00 13.1 8 Sudoeste 14 Oeste 0 -- -- 60
2019-10-17 06:00:00 12.8 6 Oeste 13 Oeste 0 -- -- 62
2019-10-17 05:00:00 12.9 4 Sudoeste 11 Oeste 0 -- -- 61
2019-10-17 04:00:00 13.6 5 Sudoeste 14 Oeste 0 -- -- 63
2019-10-17 03:00:00 14.2 6 Sudoeste 16 Oeste 0 -- -- 64
2019-10-17 02:00:00 14 6 Sudoeste 13 Oeste 0 -- -- 67
2019-10-17 01:00:00 14.3 6 Sudoeste 13 Sudoeste 0 -- -- 66
2019-10-17 00:00:00 14.9 8 Sudoeste 21 Oeste 0 -- -- 63
2019-10-16 23:00:00 13.7 8 Sudoeste 15 Sudoeste 0 -- -- 69
2019-10-16 22:00:00 14.2 7 Oeste 15 Oeste 0 -- -- 68
2019-10-16 21:00:00 14.8 8 Oeste 18 Oeste 0 -- -- 60
2019-10-16 20:00:00 15.1 10 Sudoeste 22 Oeste 0 -- -- 62
2019-10-16 19:00:00 16 16 Oeste 26 Oeste 0 -- -- 60
2019-10-16 18:00:00 17.1 15 Oeste 27 Oeste 0 -- -- 51
2019-10-16 17:00:00 17 13 Oeste 26 Oeste 0 -- -- 53
2019-10-16 16:00:00 16.9 15 Oeste 25 Oeste 0 -- -- 46
2019-10-16 15:00:00 16.7 9 Oeste 19 Oeste 0 -- -- 62
2019-10-16 14:00:00 16.8 13 Oeste 21 Oeste 0 -- -- 51
2019-10-16 13:00:00 16.7 3 Sudoeste 17 Oeste 0 -- -- 50
2019-10-16 12:00:00 16.9 4 Sudoeste 9 Oeste 0.2 -- -- 51
2019-10-16 11:00:00 17.2 5 Oeste 15 Oeste 0 -- -- 48
2019-10-16 10:00:00 16.4 3 Oeste 5 Oeste 0 -- -- 47
2019-10-16 09:00:00 14.6 0 Calma 6 Oeste 0 -- -- 69
2019-10-16 08:00:00 10.5 0 Calma 0 Calma 0 -- -- 86
2019-10-16 07:00:00 11.1 0 Calma 3 Sudeste 0 -- -- 77
2019-10-16 06:00:00 11.2 0 Calma 5 Sur 0 -- -- 80
2019-10-16 05:00:00 11.2 2 Sur 9 Sudoeste 0 -- -- 80
2019-10-16 04:00:00 11.7 5 Sudoeste 9 Sudoeste 0 -- -- 77
2019-10-16 03:00:00 12.4 3 Sudoeste 9 Sur 0 -- -- 67
2019-10-16 02:00:00 12.8 3 Sudoeste 8 Sudoeste 0 -- -- 51
2019-10-16 01:00:00 12.6 3 Sur 10 Sudoeste 0 -- -- 45
2019-10-16 00:00:00 13.4 4 Sudoeste 9 Sudoeste 0 -- -- 36
2019-10-15 23:00:00 13.6 2 Sur 5 Sudoeste 0 -- -- 47
2019-10-15 22:00:00 13.3 3 Sudoeste 10 Sudoeste 0 -- -- 33
2019-10-15 21:00:00 14.3 4 Sur 8 Sudeste 0 -- -- 38
2019-10-15 20:00:00 15.4 2 Sudoeste 8 Oeste 0 -- -- 50
2019-10-15 19:00:00 16.4 6 Sudoeste 14 Oeste 0 -- -- 58
2019-10-15 18:00:00 18 10 Oeste 22 Sudoeste 0 -- -- 61
2019-10-15 17:00:00 19.3 14 Oeste 29 Sudoeste 0 -- -- 42
2019-10-15 16:00:00 20 15 Oeste 31 Oeste 0 -- -- 39
2019-10-15 15:00:00 17.1 14 Oeste 25 Oeste 0 -- -- 62
2019-10-15 14:00:00 -- -- -- -- -- -- -- -- --
2019-10-15 13:00:00 17.4 12 Oeste 20 Oeste 0 -- -- 58
2019-10-15 12:00:00 16.6 10 Oeste 21 Sudoeste 0 -- -- 57
2019-10-15 11:00:00 18.7 10 Sudoeste 21 Sudoeste 0 -- -- 41
2019-10-15 10:00:00 17.5 8 Sudoeste 17 Sudoeste 0 -- -- 41
2019-10-15 09:00:00 15.2 8 Sudoeste 14 Sudoeste 0 -- -- 45
2019-10-15 08:00:00 11.5 5 Sudoeste 11 Sudoeste 0 -- -- 64
2019-10-15 07:00:00 8.6 2 Este 8 Sur 0 -- -- 89
2019-10-15 06:00:00 10.3 3 Sur 6 Sudoeste 0 -- -- 74
2019-10-15 05:00:00 10.3 2 Este 5 Noroeste 0 -- -- 72
2019-10-15 04:00:00 10 0 Calma 4 Sudeste 0 -- -- 74
2019-10-15 03:00:00 9.6 0 Calma 8 Este 0 -- -- 75
2019-10-15 02:00:00 10.1 0 Calma 5 Sudeste 0 -- -- 74
2019-10-15 01:00:00 10.1 2 Este 12 Nordeste 0 -- -- 71
2019-10-15 00:00:00 10 7 Nordeste 12 Este 0 -- -- 72
2019-10-14 23:00:00 9.6 4 Nordeste 13 Este 0 -- -- 69
2019-10-14 22:00:00 11 2 Este 10 Este 0 -- -- 70
2019-10-14 21:00:00 11.5 2 Este 6 Sur 0 -- -- 67
2019-10-14 20:00:00 12.4 0 Calma 9 Oeste 0 -- -- 62
2019-10-14 19:00:00 15.9 5 Oeste 16 Oeste 0 -- -- 73
2019-10-14 18:00:00 16.7 9 Oeste 15 Oeste 0 -- -- 71
2019-10-14 17:00:00 16.9 9 Oeste 20 Oeste 0 -- -- 70
2019-10-14 16:00:00 14.6 4 Nordeste 20 Oeste 0 -- -- 82
2019-10-14 15:00:00 17.2 11 Oeste 23 Noroeste 0 -- -- 65
2019-10-14 14:00:00 17.7 11 Oeste 20 Oeste 0 -- -- 57
2019-10-14 13:00:00 17.4 10 Oeste 18 Oeste 0 -- -- 55
2019-10-14 12:00:00 13.8 5 Este 14 Este 0 -- -- 78
2019-10-14 11:00:00 14.5 5 Nordeste 17 Este 0 -- -- 71
2019-10-14 10:00:00 14.5 5 Nordeste 13 Este 0 -- -- 62
2019-10-14 09:00:00 12.2 7 Nordeste 13 Este 0 -- -- 53
2019-10-14 08:00:00 8.1 4 Nordeste 16 Nordeste 0 -- -- 84
2019-10-14 07:00:00 9.6 6 Este 14 Nordeste 0 -- -- 46
2019-10-14 06:00:00 9.3 8 Nordeste 15 Nordeste 0 -- -- 70
2019-10-14 05:00:00 10.5 5 Este 8 Nordeste 0 -- -- 29
2019-10-14 04:00:00 9.1 4 Nordeste 10 Nordeste 0 -- -- 34
2019-10-14 03:00:00 10.8 4 Este 6 Este 0 -- -- 24
2019-10-14 02:00:00 9.6 3 Norte 10 Nordeste 0 -- -- 29
2019-10-14 01:00:00 11.6 7 Nordeste 15 Nordeste 0 -- -- 47
2019-10-14 00:00:00 11.3 0 Calma 10 Sudoeste 0 -- -- 43
2019-10-13 23:00:00 11.2 5 Sur 14 Sudoeste 0 -- -- 42
2019-10-13 22:00:00 11.2 7 Oeste 16 Oeste 0 -- -- 40
2019-10-13 21:00:00 9.7 4 Sudoeste 11 Sudoeste 0 -- -- 52
2019-10-13 20:00:00 10.3 7 Oeste 16 Oeste 0 -- -- 91
2019-10-13 19:00:00 12.5 10 Oeste 20 Oeste 0 -- -- 82
2019-10-13 18:00:00 14.6 14 Oeste 22 Oeste 0 -- -- 74
2019-10-13 17:00:00 16 15 Oeste 23 Oeste 0 -- -- 66
2019-10-13 16:00:00 16.8 14 Oeste 29 Oeste 0 -- -- 60
2019-10-13 15:00:00 17 17 Oeste 29 Oeste 0 -- -- 55
2019-10-13 14:00:00 18.4 16 Oeste 32 Oeste 0 -- -- 40
2019-10-13 13:00:00 18.1 14 Oeste 27 Sudoeste 0 -- -- 29
2019-10-13 12:00:00 17.5 9 Oeste 24 Sudoeste 0 -- -- 35
2019-10-13 11:00:00 18.1 12 Sudoeste 25 Sudoeste 0 -- -- 19
2019-10-13 10:00:00 18.3 5 Oeste 13 Oeste 0 -- -- 17
2019-10-13 09:00:00 14.4 2 Sudeste 5 Sur 0 -- -- 19
2019-10-13 08:00:00 9.7 2 Sur 4 Sur 0 -- -- 30
2019-10-13 07:00:00 9.4 2 Nordeste 4 Sudeste 0 -- -- 31
2019-10-13 06:00:00 9.8 0 Calma 4 Sudeste 0 -- -- 29
2019-10-13 05:00:00 9.6 2 Este 4 Este 0 -- -- 33
2019-10-13 04:00:00 9.5 2 Este 7 Nordeste 0 -- -- 33
2019-10-13 03:00:00 9.5 4 Nordeste 6 Nordeste 0 -- -- 32
2019-10-13 02:00:00 10.5 2 Nordeste 3 Nordeste 0 -- -- 30
2019-10-13 01:00:00 9.8 0 Calma 5 Nordeste 0 -- -- 29
2019-10-13 00:00:00 10.8 2 Nordeste 5 Este 0 -- -- 31
2019-10-12 23:00:00 10.8 2 Sudeste 7 Este 0 -- -- 31
2019-10-12 22:00:00 10.8 0 Calma 4 Nordeste 0 -- -- 36
2019-10-12 21:00:00 11.1 2 Este 5 Nordeste 0 -- -- 38
2019-10-12 20:00:00 11.8 0 Calma 7 Oeste 0 -- -- 35
2019-10-12 19:00:00 17.3 4 Oeste 14 Oeste 0 -- -- 62
2019-10-12 18:00:00 17 6 Oeste 16 Noroeste 0 -- -- 69
2019-10-12 17:00:00 17.7 8 Oeste 18 Oeste 0 -- -- 67
2019-10-12 16:00:00 17.7 11 Oeste 20 Oeste 0 -- -- 69
2019-10-12 15:00:00 17.6 9 Oeste 20 Noroeste 0 -- -- 69
2019-10-12 14:00:00 18.1 12 Oeste 19 Oeste 0 -- -- 60
2019-10-12 13:00:00 17.9 8 Oeste 17 Oeste 0 -- -- 54
2019-10-12 12:00:00 16.5 8 Oeste 13 Oeste 0 -- -- 57
2019-10-12 11:00:00 16.8 6 Este 14 Nordeste 0 -- -- 54
2019-10-12 10:00:00 16.7 4 Este 11 Nordeste 0 -- -- 47
2019-10-12 09:00:00 14.2 0 Calma 7 Este 0 -- -- 29
2019-10-12 08:00:00 10.2 0 Calma 8 Este 0 -- -- 22
2019-10-12 07:00:00 11.3 4 Este 7 Nordeste 0 -- -- 32
2019-10-12 06:00:00 10.6 3 Este 6 Nordeste 0 -- -- 30
2019-10-12 05:00:00 10.5 0 Calma 8 Nordeste 0 -- -- 30
2019-10-12 04:00:00 10.1 0 Calma 11 Nordeste 0 -- -- 31
2019-10-12 03:00:00 11.5 7 Este 11 Nordeste 0 -- -- 38
2019-10-12 02:00:00 11.6 6 Nordeste 11 Este 0 -- -- 38
2019-10-12 01:00:00 11.3 6 Este 11 Este 0 -- -- 36
2019-10-12 00:00:00 11.8 6 Nordeste 10 Nordeste 0 -- -- 34
2019-10-11 23:00:00 11.7 2 Nordeste 7 Noroeste 0 -- -- 23
2019-10-11 22:00:00 11.2 2 Nordeste 8 Norte 0 -- -- 24
2019-10-11 21:00:00 13.2 2 Nordeste 6 Norte 0 -- -- 19
2019-10-11 20:00:00 10.5 0 Calma 8 Oeste 0 -- -- 68
2019-10-11 19:00:00 14.2 6 Oeste 15 Oeste 0 -- -- 81
2019-10-11 18:00:00 14.3 10 Oeste 24 Oeste 0 -- -- 82
2019-10-11 17:00:00 16.6 16 Oeste 24 Oeste 0 -- -- 70
2019-10-11 16:00:00 16.9 15 Oeste 22 Oeste 0 -- -- 66
2019-10-11 15:00:00 17.5 13 Oeste 23 Oeste 0 -- -- 60
2019-10-11 14:00:00 18.4 13 Oeste 24 Oeste 0 -- -- 48
2019-10-11 13:00:00 19 11 Oeste 24 Oeste 0 -- -- 38
2019-10-11 12:00:00 18.3 13 Oeste 25 Oeste 0 -- -- 20
2019-10-11 11:00:00 18.4 9 Sudoeste 22 Sudoeste 0 -- -- 15
2019-10-11 10:00:00 16.9 11 Sudoeste 26 Sudoeste 0 -- -- 16
2019-10-11 09:00:00 15 13 Sudoeste 25 Sudoeste 0 -- -- 16
2019-10-11 08:00:00 13.1 12 Sudoeste 29 Sudoeste 0 -- -- 20
2019-10-11 07:00:00 13.7 13 Sudoeste 24 Sudoeste 0 -- -- 18
2019-10-11 06:00:00 13.7 12 Sudoeste 22 Sudoeste 0 -- -- 18
2019-10-11 05:00:00 12.9 8 Sudoeste 15 Sudoeste 0 -- -- 22
2019-10-11 04:00:00 12.6 6 Sudoeste 15 Sudoeste 0 -- -- 24
2019-10-11 03:00:00 13.7 8 Sudoeste 17 Sudoeste 0 -- -- 21
2019-10-11 02:00:00 14.6 10 Sudoeste 18 Sudoeste 0 -- -- 19
2019-10-11 01:00:00 13 7 Sudoeste 14 Sudoeste 0 -- -- 25
2019-10-11 00:00:00 14.1 9 Sudoeste 17 Sudoeste 0 -- -- 23
2019-10-10 23:00:00 13.5 7 Sudoeste 12 Sudoeste 0 -- -- 25
2019-10-10 22:00:00 14.3 7 Sudoeste 13 Sudoeste 0 -- -- 24
2019-10-10 21:00:00 13.6 6 Sudoeste 13 Sudoeste 0 -- -- 26
2019-10-10 20:00:00 13.4 5 Sudoeste 13 Sudoeste 0 -- -- 57
2019-10-10 19:00:00 14.1 7 Oeste 18 Oeste 0 -- -- 84
2019-10-10 18:00:00 17 12 Oeste 21 Oeste 0 -- -- 71
2019-10-10 17:00:00 17.1 13 Oeste 21 Oeste 0 -- -- 69
2019-10-10 16:00:00 17.9 14 Oeste 23 Oeste 0 -- -- 67
2019-10-10 15:00:00 18.2 14 Oeste 26 Oeste 0 -- -- 60
2019-10-10 14:00:00 18.7 13 Oeste 22 Oeste 0 -- -- 53
2019-10-10 13:00:00 18.6 8 Oeste 21 Oeste 0 -- -- 42
2019-10-10 12:00:00 19.3 13 Oeste 22 Oeste 0 -- -- 28
2019-10-10 11:00:00 20.6 9 Oeste 15 Noroeste 0 -- -- 19
2019-10-10 10:00:00 19.1 5 Sudoeste 12 Sudoeste 0 -- -- 19
2019-10-10 09:00:00 16.5 3 Sudoeste 8 Sudoeste 0 -- -- 21
2019-10-10 08:00:00 13.1 4 Sudoeste 8 Sudoeste 0 -- -- 24
2019-10-10 07:00:00 11.6 3 Sudeste 4 Sudeste 0 -- -- 25
2019-10-10 06:00:00 11.4 3 Sudeste 5 Sur 0 -- -- 25
2019-10-10 05:00:00 11.7 2 Este 4 Sudeste 0 -- -- 24
2019-10-10 04:00:00 12 3 Sudeste 4 Sudeste 0 -- -- 24
2019-10-10 03:00:00 11.3 0 Calma 3 Este 0 -- -- 31
2019-10-10 02:00:00 11.4 0 Calma 7 Sudoeste 0 -- -- 34
2019-10-10 01:00:00 12.2 5 Sudoeste 9 Sudoeste 0 -- -- 32
2019-10-10 00:00:00 12.1 3 Oeste 5 Sudoeste 0 -- -- 33
2019-10-09 23:00:00 12.8 0 Calma 4 Sur 0 -- -- 31
2019-10-09 22:00:00 12.6 0 Calma 2 Sudeste 0 -- -- 35
2019-10-09 21:00:00 13 0 Calma 2 Sudeste 0 -- -- 52
2019-10-09 20:00:00 15 2 Oeste 8 Oeste 0 -- -- 48
2019-10-09 19:00:00 19 6 Oeste 14 Oeste 0 -- -- 39
2019-10-09 18:00:00 20.6 6 Oeste 17 Oeste 0 -- -- 39
2019-10-09 17:00:00 20.1 10 Oeste 21 Oeste 0 -- -- 38
2019-10-09 16:00:00 21.2 12 Oeste 19 Oeste 0 -- -- 34
2019-10-09 15:00:00 21 12 Oeste 22 Oeste 0 -- -- 32
2019-10-09 14:00:00 22 10 Oeste 20 Oeste 0 -- -- 28
2019-10-09 13:00:00 22.7 10 Oeste 16 Oeste 0 -- -- 26
2019-10-09 12:00:00 23.2 7 Oeste 13 Oeste 0 -- -- 16
2019-10-09 11:00:00 22.9 6 Oeste 10 Oeste 0 -- -- 15
2019-10-09 10:00:00 21.9 6 Oeste 11 Oeste 0 -- -- 15
2019-10-09 09:00:00 17.1 2 Sudeste 5 Sudeste 0 -- -- 21
2019-10-09 08:00:00 14.8 0 Calma 5 Norte 0 -- -- 20
2019-10-09 07:00:00 14 0 Calma 6 Este 0 -- -- 18
2019-10-09 06:00:00 13.8 4 Nordeste 8 Este 0 -- -- 30
2019-10-09 05:00:00 14.6 0 Calma 6 Este 0 -- -- 17
2019-10-09 04:00:00 14.8 0 Calma 3 Norte 0 -- -- 17
2019-10-09 03:00:00 15.1 0 Calma 3 Sudeste 0 -- -- 18
2019-10-09 02:00:00 15.6 0 Calma 4 Este 0 -- -- 19
2019-10-09 01:00:00 15.9 0 Calma 4 Noroeste 0 -- -- 25
2019-10-09 00:00:00 16.6 0 Calma 4 Noroeste 0 -- -- 16
2019-10-08 23:00:00 16.6 0 Calma 8 Norte 0 -- -- 16
2019-10-08 22:00:00 18.5 3 Norte 12 Norte 0 -- -- 15
2019-10-08 21:00:00 19.3 4 Norte 17 Norte 0 -- -- 19
2019-10-08 20:00:00 19.6 4 Norte 12 Oeste 0 -- -- 23
2019-10-08 19:00:00 22.5 8 Oeste 14 Oeste 0 -- -- 24
2019-10-08 18:00:00 23.6 9 Oeste 20 Oeste 0 -- -- 25
2019-10-08 17:00:00 24.5 11 Oeste 21 Oeste 0 -- -- 24
2019-10-08 16:00:00 24.4 13 Oeste 26 Oeste 0 -- -- 24
2019-10-08 15:00:00 24.4 15 Oeste 29 Oeste 0 -- -- 24
2019-10-08 14:00:00 25.2 16 Oeste 31 Noroeste 0 -- -- 21
2019-10-08 13:00:00 25.3 16 Oeste 30 Oeste 0 -- -- 20
2019-10-08 12:00:00 25 14 Oeste 22 Oeste 0 -- -- 18
2019-10-08 11:00:00 23.9 15 Oeste 24 Oeste 0 -- -- 19
2019-10-08 10:00:00 22.8 14 Oeste 22 Oeste 0 -- -- 19
2019-10-08 09:00:00 20.9 11 Oeste 23 Oeste 0 -- -- 21
2019-10-08 08:00:00 18.9 13 Oeste 22 Sudoeste 0 -- -- 21
2019-10-08 07:00:00 20.1 14 Sudoeste 27 Oeste 0 -- -- 22
2019-10-08 06:00:00 19.9 13 Sudoeste 25 Sudoeste 0 -- -- 22
2019-10-08 05:00:00 19.6 12 Sudoeste 22 Sudoeste 0 -- -- 21
2019-10-08 04:00:00 19.6 9 Sudoeste 19 Oeste 0 -- -- 21
2019-10-08 03:00:00 19.5 8 Sudoeste 21 Sudoeste 0 -- -- 22
2019-10-08 02:00:00 19.7 9 Sudoeste 21 Sudoeste 0 -- -- 23
2019-10-08 01:00:00 19.9 11 Sudoeste 21 Sudoeste 0 -- -- 22
2019-10-08 00:00:00 19.9 10 Sudoeste 21 Sudoeste 0 -- -- 23
2019-10-07 23:00:00 19.9 10 Sudoeste 23 Sudoeste 0 -- -- 22
2019-10-07 22:00:00 20.3 12 Sudoeste 24 Sudoeste 0 -- -- 21
2019-10-07 21:00:00 20.3 10 Sudoeste 25 Oeste 0 -- -- 21
2019-10-07 20:00:00 20.8 13 Sudoeste 27 Oeste 0 -- -- 20
2019-10-07 19:00:00 22.8 15 Sudoeste 29 Oeste 0 -- -- 19
2019-10-07 18:00:00 25.1 14 Oeste 29 Sudoeste 0 -- -- 17
2019-10-07 17:00:00 25.1 15 Sudoeste 30 Oeste 0 -- -- 21
2019-10-07 16:00:00 26 14 Sudoeste 28 Oeste 0 -- -- 21
2019-10-07 15:00:00 25.8 13 Sudoeste 27 Oeste 0 -- -- 21
2019-10-07 14:00:00 25.7 15 Oeste 30 Oeste 0 -- -- 22
2019-10-07 13:00:00 26.1 13 Oeste 33 Sudoeste 0 -- -- 17
2019-10-07 12:00:00 25.8 13 Sudoeste 23 Oeste 0 -- -- 15
2019-10-07 11:00:00 25.5 10 Oeste 23 Sudoeste 0 -- -- 13
2019-10-07 10:00:00 23.9 11 Sudoeste 22 Oeste 0 -- -- 14
2019-10-07 09:00:00 22 10 Sudoeste 23 Sudoeste 0 -- -- 16
2019-10-07 08:00:00 20.5 12 Sudoeste 23 Sudoeste 0 -- -- 16
2019-10-07 07:00:00 19.7 10 Sudoeste 17 Sudoeste 0 -- -- 16
2019-10-07 06:00:00 19.2 10 Sudoeste 18 Oeste 0 -- -- 15
2019-10-07 05:00:00 19.3 10 Sudoeste 17 Oeste 0 -- -- 15
2019-10-07 04:00:00 19.1 8 Sudoeste 12 Sudoeste 0 -- -- 14
2019-10-07 03:00:00 17.4 5 Sudoeste 9 Sudoeste 0 -- -- 14
2019-10-07 02:00:00 15.9 0 Calma 2 Sur 0 -- -- 19
2019-10-07 01:00:00 16.1 0 Calma 7 Sudeste 0 -- -- 21
2019-10-07 00:00:00 16.1 3 Sudeste 9 Sudeste 0 -- -- 23
2019-10-06 23:00:00 16.6 3 Sudeste 7 Sur 0 -- -- 23
2019-10-06 22:00:00 16.4 0 Calma 6 Sudeste 0 -- -- 24
2019-10-06 21:00:00 16 0 Calma -- -- 0 -- -- 26
2019-10-06 20:00:00 17.9 0 Calma 4 Oeste 0 -- -- 44
2019-10-06 19:00:00 22.5 5 Oeste 13 Oeste 0 -- -- 48
2019-10-06 18:00:00 23 4 Sudoeste 15 Oeste 0 -- -- 42
2019-10-06 17:00:00 23 11 Oeste 19 Oeste 0 -- -- 43
2019-10-06 16:00:00 23.2 9 Oeste 19 Oeste 0 -- -- 44
2019-10-06 15:00:00 22.7 11 Oeste 18 Oeste 0 -- -- 46
2019-10-06 14:00:00 23.8 9 Noroeste 15 Oeste 0 -- -- 31
2019-10-06 13:00:00 24.4 8 Oeste 15 Oeste 0 -- -- 27
2019-10-06 12:00:00 24.7 8 Oeste 17 Este 0 -- -- 23
2019-10-06 11:00:00 23.6 6 Este 17 Este 0 -- -- 21
2019-10-06 10:00:00 21.1 9 Este 22 Sudeste 0 -- -- 22
2019-10-06 09:00:00 16.8 12 Este 23 Nordeste 0 -- -- 30
2019-10-06 08:00:00 15.8 15 Este 28 Sudeste 0 -- -- 31
2019-10-06 07:00:00 15.9 14 Este 24 Nordeste 0 -- -- 32
2019-10-06 06:00:00 15.6 13 Este 26 Este 0 -- -- 28
2019-10-06 05:00:00 15.6 14 Este 24 Este 0 -- -- 27
2019-10-06 04:00:00 15.2 14 Este 31 Este 0 -- -- 29
2019-10-06 03:00:00 15.9 15 Este 33 Este 0 -- -- 26
2019-10-06 02:00:00 15.8 13 Este 27 Este 0 -- -- 25
2019-10-06 01:00:00 15.7 14 Este 25 Este 0 -- -- 27
2019-10-06 00:00:00 16 13 Este 27 Este 0 -- -- 26
2019-10-05 23:00:00 15.5 16 Este 26 Nordeste 0 -- -- 30
2019-10-05 22:00:00 15 12 Este 23 Nordeste 0 -- -- 35
2019-10-05 21:00:00 15.4 14 Este 28 Nordeste 0 -- -- 34
2019-10-05 20:00:00 15.9 12 Este 25 Este 0 -- -- 27
2019-10-05 19:00:00 17.3 13 Este 27 Nordeste 0 -- -- 35
2019-10-05 18:00:00 18.7 13 Este 30 Este 0 -- -- 32
2019-10-05 17:00:00 18.8 14 Este 31 Este 0 -- -- 37
2019-10-05 16:00:00 18.9 18 Este 37 Este 0 -- -- 36
2019-10-05 15:00:00 18.7 19 Este 35 Este 0 -- -- 36
2019-10-05 14:00:00 19 18 Este 39 Nordeste 0 -- -- 40
2019-10-05 13:00:00 20.1 15 Este 34 Este 0 -- -- 37
2019-10-05 12:00:00 19.5 18 Este 35 Nordeste 0 -- -- 39
2019-10-05 11:00:00 18.7 19 Este 41 Nordeste 0 -- -- 36
2019-10-05 10:00:00 18 16 Este 39 Este 0 -- -- 34
2019-10-05 09:00:00 16.9 18 Este 38 Este 0 -- -- 36
2019-10-05 08:00:00 14.8 17 Este 39 Este 0 -- -- 41
2019-10-05 07:00:00 15.1 21 Este 38 Este 0 -- -- 39
2019-10-05 06:00:00 15.5 19 Este 37 Este 0 -- -- 38
2019-10-05 05:00:00 15.2 18 Este 36 Este 0 -- -- 35
2019-10-05 04:00:00 15.8 21 Este 40 Este 0 -- -- 34
2019-10-05 03:00:00 16 18 Este 36 Este 0 -- -- 32
2019-10-05 02:00:00 16.7 19 Este 37 Sudeste 0 -- -- 29
2019-10-05 01:00:00 16.8 17 Este 34 Este 0 -- -- 28
2019-10-05 00:00:00 16.5 18 Este 36 Este 0 -- -- 28
2019-10-04 23:00:00 16.5 18 Este 31 Sudeste 0 -- -- 29
2019-10-04 22:00:00 16.7 14 Sudeste 30 Este 0 -- -- 28
2019-10-04 21:00:00 17.4 11 Sudeste 26 Este 0 -- -- 24
2019-10-04 20:00:00 17.8 8 Sudeste 17 Este 0 -- -- 22
2019-10-04 19:00:00 20.7 7 Sudeste 22 Norte 0 -- -- 22
2019-10-04 18:00:00 22.9 8 Sudoeste 18 Este 0 -- -- 21
2019-10-04 17:00:00 21.9 10 Sudeste 25 Este 0 -- -- 22
2019-10-04 16:00:00 22.8 8 Sur 27 Este 0 -- -- 18
2019-10-04 15:00:00 22.2 13 Este 34 Este 0 -- -- 19
2019-10-04 14:00:00 22 11 Sudeste 30 Este 0 -- -- 20
2019-10-04 13:00:00 21 18 Este 40 Este 0 -- -- 23
2019-10-04 12:00:00 20.8 17 Este 38 Este 0 -- -- 24
2019-10-04 11:00:00 19.8 16 Este 33 Sudeste 0 -- -- 28
2019-10-04 10:00:00 18.6 12 Sudeste 27 Sudeste 0 -- -- 29
2019-10-04 09:00:00 17 12 Sudeste 41 Este 0 -- -- 31
2019-10-04 08:00:00 16 14 Sudeste 33 Sudeste 0 -- -- 33
2019-10-04 07:00:00 15.9 12 Sudeste 27 Sudeste 0 -- -- 33
2019-10-04 06:00:00 16.6 13 Sudeste 34 Este 0 -- -- 29
2019-10-04 05:00:00 16.6 14 Sudeste 28 Este 0 -- -- 30
2019-10-04 04:00:00 16.5 14 Sudeste 32 Sur 0 -- -- 31
2019-10-04 03:00:00 15.6 11 Sur 25 Sudeste 0 -- -- 35
2019-10-04 02:00:00 16.9 11 Sur 23 Sur 0 -- -- 30
2019-10-04 01:00:00 16.6 12 Sur 30 Sudeste 0 -- -- 30
2019-10-04 00:00:00 16.6 11 Sudoeste 28 Este 0 -- -- 32
2019-10-03 23:00:00 16.7 12 Oeste 32 Oeste 0 -- -- 30
2019-10-03 22:00:00 16.7 12 Sur 28 Noroeste 0 -- -- 29
2019-10-03 21:00:00 17 12 Oeste 24 Noroeste 0 -- -- 29
2019-10-03 20:00:00 17.5 11 Oeste 24 Oeste 0 -- -- 27
2019-10-03 19:00:00 20.4 13 Oeste 29 Oeste 0 -- -- 23
2019-10-03 18:00:00 21.7 10 Sudoeste 22 Sudeste 0 -- -- 19
2019-10-03 17:00:00 22.6 9 Sudoeste 24 Noroeste 0 -- -- 21
2019-10-03 16:00:00 23.2 11 Oeste 27 Noroeste 0 -- -- 18
2019-10-03 15:00:00 24.8 10 Oeste 26 Noroeste 0 -- -- 17
2019-10-03 14:00:00 25 10 Sudoeste 28 Este 0 -- -- 16
2019-10-03 13:00:00 24 8 Sudoeste 25 Este 0 -- -- 18
2019-10-03 12:00:00 22.9 8 Sur 21 Sudeste 0 -- -- 21
2019-10-03 11:00:00 23 8 Sudoeste 21 Sudeste 0 -- -- 19
2019-10-03 10:00:00 21.3 8 Sudeste 24 Sudeste 0 -- -- 21
2019-10-03 09:00:00 20.1 10 Sudeste 26 Este 0 -- -- 19
2019-10-03 08:00:00 18.9 13 Este 26 Este 0 -- -- 16
2019-10-03 07:00:00 18.9 13 Este 24 Este 0 -- -- 16
2019-10-03 06:00:00 19.3 12 Este 28 Este 0 -- -- 14
2019-10-03 05:00:00 20.5 8 Este 29 Este 0 -- -- 14
2019-10-03 04:00:00 20.4 12 Este 23 Este 0 -- -- 15
2019-10-03 03:00:00 20.6 10 Este 26 Este 0 -- -- 15
2019-10-03 02:00:00 20.8 10 Este 22 Este 0 -- -- 15
2019-10-03 01:00:00 21 10 Este 19 Este 0 -- -- 16
2019-10-03 00:00:00 21.3 9 Este 20 Este 0 -- -- 16
2019-10-02 23:00:00 21.6 10 Este 19 Este 0 -- -- 15
2019-10-02 22:00:00 21.6 8 Este 14 Este 0 -- -- 18
2019-10-02 21:00:00 21.6 7 Este 11 Este 0 -- -- 19
2019-10-02 20:00:00 22.1 6 Este 10 Este 0 -- -- 19
2019-10-02 19:00:00 25.2 6 Nordeste 13 Nordeste 0 -- -- 19
2019-10-02 18:00:00 26.3 9 Nordeste 17 Este 0 -- -- 19
2019-10-02 17:00:00 27.4 9 Este 17 Nordeste 0 -- -- 16
2019-10-02 16:00:00 26.9 10 Nordeste 21 Este 0 -- -- 16
2019-10-02 15:00:00 27.5 9 Nordeste 24 Este 0 -- -- 15
2019-10-02 14:00:00 28 10 Este 20 Este 0 -- -- 15
2019-10-02 13:00:00 27.8 10 Este 24 Este 0 -- -- 15
2019-10-02 12:00:00 27.8 10 Este 23 Nordeste 0 -- -- 15
2019-10-02 11:00:00 27 10 Este 21 Este 0 -- -- 16
2019-10-02 10:00:00 25.4 10 Este 19 Sudeste 0 -- -- 17
2019-10-02 09:00:00 22.6 10 Este 18 Este 0 -- -- 19
2019-10-02 08:00:00 21.5 10 Este 17 Este 0 -- -- 19
2019-10-02 07:00:00 21.7 9 Este 15 Este 0 -- -- 19
2019-10-02 06:00:00 21.6 8 Este 14 Este 0 -- -- 19
2019-10-02 05:00:00 20.9 7 Este 10 Este 0 -- -- 18
2019-10-02 04:00:00 22 9 Este 13 Este 0 -- -- 17
2019-10-02 03:00:00 22.5 9 Este 13 Este 0 -- -- 17
2019-10-02 02:00:00 22.6 9 Este 13 Este 0 -- -- 17
2019-10-02 01:00:00 22.2 7 Este 13 Este 0 -- -- 17
2019-10-02 00:00:00 22.1 7 Este 10 Este 0 -- -- 17
2019-10-01 23:00:00 22.3 5 Este 10 Este 0 -- -- 17
2019-10-01 22:00:00 22.5 5 Este 9 Este 0 -- -- 16
2019-10-01 21:00:00 23.7 5 Este 12 Nordeste 0 -- -- 15
2019-10-01 20:00:00 23.7 5 Este 9 Este 0 -- -- 16
2019-10-01 19:00:00 28.3 5 Este 11 Nordeste 0 -- -- 14
2019-10-01 18:00:00 28.3 7 Este 15 Nordeste 0 -- -- 15
2019-10-01 17:00:00 29.4 6 Este 16 Nordeste 0 -- -- 16
2019-10-01 16:00:00 28.9 9 Este 17 Este 0 -- -- 17
2019-10-01 15:00:00 29.4 8 Este 19 Nordeste 0 -- -- 18
2019-10-01 14:00:00 -- 9 Este 22 Nordeste 0 -- -- --
2019-10-01 13:00:00 28.9 9 Nordeste 18 Nordeste 0 -- -- 17
2019-10-01 12:00:00 28.4 8 Este 18 Nordeste 0 -- -- 16
2019-10-01 11:00:00 27.5 9 Nordeste 17 Nordeste 0 -- -- 16
2019-10-01 10:00:00 29 3 Sudeste 9 Este 0 -- -- 15
2019-10-01 09:00:00 23.7 0 Calma 6 Sudeste 0 -- -- 17
2019-10-01 08:00:00 20.3 2 Sudeste 4 Sur 0 -- -- 19
2019-10-01 07:00:00 20.8 0 Calma 4 Sudeste 0 -- -- 18
2019-10-01 06:00:00 21.7 3 Sur 7 Sur 0 -- -- 17
2019-10-01 05:00:00 22.5 3 Sudoeste 11 Sudoeste 0 -- -- 15
2019-10-01 04:00:00 24.1 4 Oeste 20 Sudoeste 0 -- -- 15
2019-10-01 03:00:00 22.9 4 Sudeste 15 Sudeste 0 -- -- 15
2019-10-01 02:00:00 23.3 5 Este 15 Sudeste 0 -- -- 14
2019-10-01 01:00:00 24.3 8 Este 15 Este 0 -- -- 14
2019-10-01 00:00:00 23.9 8 Este 17 Este 0 -- -- 14
2019-09-30 23:00:00 24.2 8 Este 13 Sudeste 0 -- -- 14
2019-09-30 22:00:00 23.5 6 Sudeste 11 Sudeste 0 -- -- 16
2019-09-30 21:00:00 22.6 4 Este 8 Este 0 -- -- 22
2019-09-30 20:00:00 24.8 3 Sudoeste 9 Sur 0 -- -- 18
2019-09-30 19:00:00 28.8 7 Sudoeste 21 Sudeste 0 -- -- 15
2019-09-30 18:00:00 28.8 8 Sudoeste 19 Noroeste 0 -- -- 17
2019-09-30 17:00:00 30.3 7 Sur 21 Sudeste 0 -- -- 18
2019-09-30 16:00:00 29.5 12 Sudeste 24 Sudeste 0 -- -- 15
2019-09-30 15:00:00 29 13 Sudeste 27 Sudeste 0 -- -- 16
2019-09-30 14:00:00 28.8 14 Sudeste 26 Sudeste 0 -- -- 15
2019-09-30 13:00:00 28.7 14 Sudeste 24 Sudeste 0 -- -- 15
2019-09-30 12:00:00 28.3 13 Sudeste 24 Sudeste 0 -- -- 16
2019-09-30 11:00:00 27.7 14 Sudeste 29 Este 0 -- -- 16
2019-09-30 10:00:00 26.6 15 Sudeste 25 Este 0 -- -- 16
2019-09-30 09:00:00 24 13 Sudeste 23 Sudeste 0 -- -- 17
2019-09-30 08:00:00 23.2 16 Este 24 Sudeste 0 -- -- 18
2019-09-30 07:00:00 23 15 Este 27 Este 0 -- -- 19
2019-09-30 06:00:00 22.4 14 Este 24 Este 0 -- -- 19
2019-09-30 05:00:00 21.4 9 Este 18 Este 0 -- -- 20
2019-09-30 04:00:00 21.4 10 Este 27 Este 0 -- -- 19
2019-09-30 03:00:00 22 12 Este 21 Este 0 -- -- 19
2019-09-30 02:00:00 22.8 12 Este 22 Este 0 -- -- 18
2019-09-30 01:00:00 23.1 15 Este 20 Este 0 -- -- 18
2019-09-30 00:00:00 23.1 14 Este 19 Este 0 -- -- 18
2019-09-29 23:00:00 22.9 11 Este 19 Sudeste 0 -- -- 18
2019-09-29 22:00:00 23 13 Sudeste 22 Este 0 -- -- 18
2019-09-29 21:00:00 23.3 14 Sudeste 21 Este 0 -- -- 17
2019-09-29 20:00:00 23 9 Sudeste 13 Sudeste 0 -- -- 19
2019-09-29 19:00:00 26.6 6 Sudeste 18 Sudeste 0 -- -- 16
2019-09-29 18:00:00 25.6 9 Sudeste 21 Sur 0 -- -- 21
2019-09-29 17:00:00 27.6 12 Sur 21 Sur 0 -- -- 17
2019-09-29 16:00:00 26.8 9 Sudeste 24 Este 0 -- -- 16
2019-09-29 15:00:00 27.2 10 Sudeste 24 Este 0 -- -- 19
2019-09-29 14:00:00 27.1 8 Sudeste 24 Sudeste 0 -- -- 21
2019-09-29 13:00:00 28 9 Sudeste 20 Sur 0 -- -- 17
2019-09-29 12:00:00 26.7 12 Sudeste 20 Sudeste 0 -- -- 17
2019-09-29 11:00:00 26.1 12 Sudeste 20 Sur 0 -- -- 17
2019-09-29 10:00:00 25.5 10 Sudeste 19 Sudeste 0 -- -- 17
2019-09-29 09:00:00 23.1 8 Sudeste 16 Sudeste 0 -- -- 19
2019-09-29 08:00:00 21 12 Sudeste 19 Sudeste 0 -- -- 22
2019-09-29 07:00:00 20.8 9 Sudeste 17 Sudeste 0 -- -- 22
2019-09-29 06:00:00 19.1 0 Calma 6 Sudeste 0 -- -- 23
2019-09-29 05:00:00 20.3 4 Sudeste 10 Este 0 -- -- 23
2019-09-29 04:00:00 20.2 4 Sudeste 13 Sudeste 0 -- -- 24
2019-09-29 03:00:00 20.5 6 Sudeste 12 Sudeste 0 -- -- 25
2019-09-29 02:00:00 20.5 5 Sudeste 10 Sudeste 0 -- -- 25
2019-09-29 01:00:00 20.5 5 Sudeste 10 Sudeste 0 -- -- 26
2019-09-29 00:00:00 20.1 4 Sudeste 9 Sudeste 0 -- -- 27
2019-09-28 23:00:00 20.8 5 Sudeste 13 Sudeste 0 -- -- 25
2019-09-28 22:00:00 21.1 6 Sudeste 15 Sudeste 0 -- -- 24
2019-09-28 21:00:00 21 7 Sudeste 20 Sur 0 -- -- 26
2019-09-28 20:00:00 21.8 6 Sur 16 Sur 0 -- -- 24
2019-09-28 19:00:00 25 10 Sudoeste 20 Sudoeste 0 -- -- 23
2019-09-28 18:00:00 26.4 10 Oeste 25 Oeste 0 -- -- 24
2019-09-28 17:00:00 26.5 11 Oeste 25 Oeste 0 -- -- 24
2019-09-28 16:00:00 26.9 14 Oeste 29 Oeste 0 -- -- 23
2019-09-28 15:00:00 27.4 11 Oeste 26 Oeste 0 -- -- 22
2019-09-28 14:00:00 27.3 12 Oeste 25 Sudoeste 0 -- -- 21
2019-09-28 13:00:00 26.3 13 Oeste 24 Oeste 0 -- -- 22
2019-09-28 12:00:00 26.6 11 Sudoeste 23 Sudoeste 0 -- -- 21
2019-09-28 11:00:00 25.7 11 Sudoeste 26 Oeste 0 -- -- 22
2019-09-28 10:00:00 24.8 10 Sudoeste 17 Sudoeste 0 -- -- 22
2019-09-28 09:00:00 22.3 9 Sudoeste 21 Sudoeste 0 -- -- 24
2019-09-28 08:00:00 20.5 11 Sudoeste 20 Sudoeste 0 -- -- 28
2019-09-28 07:00:00 19.9 9 Sudoeste 19 Sudoeste 0 -- -- 30
2019-09-28 06:00:00 19.7 11 Sudoeste 21 Sudoeste 0 -- -- 31
2019-09-28 05:00:00 19.7 11 Sudoeste 19 Sudoeste 0 -- -- 30
2019-09-28 04:00:00 19.8 10 Sudoeste 21 Sudoeste 0 -- -- 30
2019-09-28 03:00:00 20.1 12 Sudoeste 21 Oeste 0 -- -- 29
2019-09-28 02:00:00 20.2 11 Sudoeste 25 Sudoeste 0 -- -- 29
2019-09-28 01:00:00 20.3 13 Sudoeste 25 Sudoeste 0 -- -- 27
2019-09-28 00:00:00 20.3 12 Sudoeste 23 Sudoeste 0 -- -- 27
2019-09-27 23:00:00 20.4 12 Sudoeste 24 Sudoeste 0 -- -- 26
2019-09-27 22:00:00 20.5 12 Sudoeste 21 Sudoeste 0 -- -- 25
2019-09-27 21:00:00 20.8 14 Sudoeste 21 Oeste 0 -- -- 26
2019-09-27 20:00:00 21.1 11 Sudoeste 23 Oeste 0 -- -- 27
2019-09-27 19:00:00 23.9 13 Sudoeste 26 Sudoeste 0 -- -- 26
2019-09-27 18:00:00 25.3 13 Sudoeste 28 Oeste 0 -- -- 26
2019-09-27 17:00:00 25.6 15 Oeste 28 Oeste 0 -- -- 30
2019-09-27 16:00:00 25.7 15 Oeste 29 Oeste 0 -- -- 28
2019-09-27 15:00:00 26.1 14 Oeste 28 Oeste 0 -- -- 27
2019-09-27 14:00:00 25.9 17 Oeste 29 Oeste 0 -- -- 26
2019-09-27 13:00:00 26 15 Sudoeste 35 Oeste 0 -- -- 21
2019-09-27 12:00:00 26.6 12 Sudoeste 29 Sudoeste 0 -- -- 19
2019-09-27 11:00:00 25.2 12 Sudoeste 26 Sudoeste 0 -- -- 20
2019-09-27 10:00:00 24.4 12 Sudoeste 25 Oeste 0 -- -- 21
2019-09-27 09:00:00 22.4 14 Oeste 29 Oeste 0 -- -- 22
2019-09-27 08:00:00 20.9 13 Oeste 28 Sudoeste 0 -- -- 23
2019-09-27 07:00:00 20.7 12 Oeste 26 Sudoeste 0 -- -- 21
2019-09-27 06:00:00 21 13 Sudoeste 28 Sudoeste 0 -- -- 20
2019-09-27 05:00:00 21.1 14 Sudoeste 27 Sudoeste 0 -- -- 20
2019-09-27 04:00:00 21 15 Sudoeste 29 Sudoeste 0 -- -- 18
2019-09-27 03:00:00 21.4 16 Sudoeste 28 Sudoeste 0 -- -- 19
2019-09-27 02:00:00 21.3 13 Sudoeste 28 Oeste 0 -- -- 18
2019-09-27 01:00:00 21.3 13 Sudoeste 26 Sudoeste 0 -- -- 18
2019-09-27 00:00:00 21.6 13 Sudoeste 27 Sudoeste 0 -- -- 17
2019-09-26 23:00:00 21.6 12 Sudoeste 25 Oeste 0 -- -- 17
2019-09-26 22:00:00 21.4 13 Sudoeste 23 Sudoeste 0 -- -- 17
2019-09-26 21:00:00 20.6 8 Sudoeste 22 Sudoeste 0 -- -- 19
2019-09-26 20:00:00 21.4 11 Sudoeste 23 Sudoeste 0 -- -- 20
2019-09-26 19:00:00 24 12 Sudoeste 25 Oeste 0 -- -- 22
2019-09-26 18:00:00 25.4 12 Oeste 27 Sudoeste 0 -- -- 34
2019-09-26 17:00:00 25.5 15 Oeste 36 Oeste 0 -- -- 32
2019-09-26 16:00:00 26 15 Oeste 32 Sudoeste 0 -- -- 27
2019-09-26 15:00:00 25.4 14 Oeste 31 Oeste 0 -- -- 26
2019-09-26 14:00:00 26.2 17 Oeste 32 Sur 0 -- -- 23
2019-09-26 13:00:00 26.2 14 Oeste 29 Oeste 0 -- -- 19
2019-09-26 12:00:00 26.2 11 Sudoeste 21 Sudoeste 0 -- -- 18
2019-09-26 11:00:00 25.7 12 Oeste 30 Sudoeste 0 -- -- 15
2019-09-26 10:00:00 24.9 9 Sudoeste 18 Sudoeste 0 -- -- 11
2019-09-26 09:00:00 22.8 8 Sudoeste 21 Sudoeste 0 -- -- 12
2019-09-26 08:00:00 20.5 8 Oeste 16 Sudoeste 0 -- -- 14
2019-09-26 07:00:00 19.1 4 Sudoeste 9 Sudoeste 0 -- -- 9
2019-09-26 06:00:00 19.1 5 Sudoeste 9 Oeste 0 -- -- 10
2019-09-26 05:00:00 17.5 0 Calma 5 Noroeste 0 -- -- 8
2019-09-26 04:00:00 16.4 2 Oeste 5 Sur 0 -- -- 23
2019-09-26 03:00:00 16.3 0 Calma 5 Oeste 0 -- -- 30
2019-09-26 02:00:00 15.7 0 Calma 4 Sudeste 0 -- -- 32
2019-09-26 01:00:00 15.8 0 Calma 5 Sudeste 0 -- -- 27
2019-09-26 00:00:00 16.3 0 Calma 5 Este 0 -- -- 29
2019-09-25 23:00:00 16.7 2 Este 4 Este 0 -- -- 28
2019-09-25 22:00:00 17.2 4 Este 7 Este 0 -- -- 31
2019-09-25 21:00:00 17.6 4 Este 6 Nordeste 0 -- -- 32
2019-09-25 20:00:00 19.9 3 Este 8 Este 0 -- -- 40
2019-09-25 19:00:00 24.3 3 Nordeste 18 Noroeste 0 -- -- 32
2019-09-25 18:00:00 24.7 5 Oeste 17 Oeste 0 -- -- 41
2019-09-25 17:00:00 23.9 5 Nordeste 14 Nordeste 0 -- -- 36
2019-09-25 16:00:00 23 9 Nordeste 16 Nordeste 0 -- -- 34
2019-09-25 15:00:00 23.3 8 Nordeste 17 Este 0 -- -- 32
2019-09-25 14:00:00 22.9 8 Nordeste 17 Este 0 -- -- 32
2019-09-25 13:00:00 22.3 8 Este 16 Este 0 -- -- 29
2019-09-25 12:00:00 22.3 7 Nordeste 18 Nordeste 0 -- -- 28
2019-09-25 11:00:00 21.7 8 Nordeste 15 Este 0 -- -- 30
2019-09-25 10:00:00 19.7 8 Nordeste 17 Nordeste 0 -- -- 34
2019-09-25 09:00:00 17.6 10 Nordeste 17 Este 0 -- -- 44
2019-09-25 08:00:00 14.6 8 Este 14 Nordeste 0 -- -- 52
2019-09-25 07:00:00 14.4 8 Este 16 Nordeste 0 -- -- 53
2019-09-25 06:00:00 15.1 8 Este 13 Nordeste 0 -- -- 43
2019-09-25 05:00:00 14.7 8 Este 13 Nordeste 0 -- -- 44
2019-09-25 04:00:00 14.2 5 Nordeste 14 Nordeste 0 -- -- 30
2019-09-25 03:00:00 15 7 Este 17 Este 0 -- -- 31
2019-09-25 02:00:00 16.3 10 Este 21 Este 0 -- -- 16
2019-09-25 01:00:00 16.1 10 Este 18 Este 0 -- -- 11
2019-09-25 00:00:00 15.3 10 Este 18 Este 0 -- -- 14
2019-09-24 23:00:00 16.8 12 Este 20 Este 0 -- -- 19
2019-09-24 22:00:00 14.9 9 Este 15 Este 0 -- -- 31
2019-09-24 21:00:00 14 8 Este 16 Este 0 -- -- 50
2019-09-24 20:00:00 15.3 9 Nordeste 19 Nordeste 0 -- -- 49
2019-09-24 19:00:00 17.5 10 Este 19 Nordeste 0 -- -- 45
2019-09-24 18:00:00 19.6 9 Nordeste 20 Este 0 -- -- 44
2019-09-24 17:00:00 19.8 8 Nordeste 16 Nordeste 0 -- -- 45
2019-09-24 16:00:00 20.6 5 Este 20 Oeste 0 -- -- 43
2019-09-24 15:00:00 21.7 8 Noroeste 22 Oeste 0 -- -- 51
2019-09-24 14:00:00 21.7 8 Oeste 17 Oeste 0 -- -- 50
2019-09-24 13:00:00 20.6 10 Oeste 16 Oeste 0 -- -- 54
2019-09-24 12:00:00 21.2 7 Noroeste 14 Oeste 0 -- -- 42
2019-09-24 11:00:00 20.8 5 Oeste 13 Sur 0 -- -- 41
2019-09-24 10:00:00 19.9 5 Sudeste 9 Sur 0 -- -- 40
2019-09-24 09:00:00 16.2 0 Calma 5 Este 0 -- -- 50
2019-09-24 08:00:00 12 3 Este 5 Sudeste 0 -- -- 62
2019-09-24 07:00:00 13 3 Este 9 Sudeste 0 -- -- 59
2019-09-24 06:00:00 12.9 4 Este 8 Sudeste 0 -- -- 60
2019-09-24 05:00:00 12.5 3 Sudeste 6 Sudeste 0 -- -- 63
2019-09-24 04:00:00 12.2 0 Calma 3 Este 0 -- -- 68
2019-09-24 03:00:00 11.7 0 Calma 3 Este 0 -- -- 69
2019-09-24 02:00:00 12.4 0 Calma 3 Este 0 -- -- 74
2019-09-24 01:00:00 12.6 0 Calma 4 Nordeste 0 -- -- 66
2019-09-24 00:00:00 12.9 4 Este 9 Este 0 -- -- 73
2019-09-23 23:00:00 12.8 5 Este 10 Nordeste 0 -- -- 71
2019-09-23 22:00:00 13.4 7 Este 11 Nordeste 0 -- -- 61
2019-09-23 21:00:00 13.8 4 Nordeste 12 Nordeste 0 -- -- 56
2019-09-23 20:00:00 15.8 7 Nordeste 12 Nordeste 0 -- -- 58
2019-09-23 19:00:00 21.1 4 Oeste 13 Noroeste 0 -- -- 56
2019-09-23 18:00:00 19.6 8 Oeste 19 Oeste 0 -- -- 67
2019-09-23 17:00:00 20.7 10 Oeste 20 Oeste 0 -- -- 63
2019-09-23 16:00:00 21.1 12 Oeste 22 Oeste 0 -- -- 58
2019-09-23 15:00:00 21.5 11 Oeste 19 Noroeste 0 -- -- 56
2019-09-23 14:00:00 21.5 12 Oeste 17 Oeste 0 -- -- 57
2019-09-23 13:00:00 21 8 Norte 15 Norte 0 -- -- 48
2019-09-23 12:00:00 20.2 7 Este 16 Nordeste 0 -- -- 44
2019-09-23 11:00:00 20.5 5 Nordeste 13 Este 0 -- -- 53
2019-09-23 10:00:00 20 4 Este 10 Este 0 -- -- 52
2019-09-23 09:00:00 15.6 2 Nordeste 5 Este 0 -- -- 74
2019-09-23 08:00:00 12.1 3 Este 5 Nordeste 0 -- -- 84
2019-09-23 07:00:00 11.9 3 Nordeste 5 Este 0 -- -- 87
2019-09-23 06:00:00 11.7 3 Este 5 Este 0 -- -- 91
2019-09-23 05:00:00 11.8 4 Sudeste 9 Este 0 -- -- 93
2019-09-23 04:00:00 12.4 5 Este 13 Este 0 -- -- 94
2019-09-23 03:00:00 12.6 6 Este 15 Nordeste 0 -- -- 94
2019-09-23 02:00:00 13.1 9 Este 18 Nordeste 0 -- -- 91
2019-09-23 01:00:00 13.2 9 Este 17 Este 0 -- -- 91
2019-09-23 00:00:00 13.2 12 Este 26 Nordeste 0.2 -- -- 97
2019-09-22 23:00:00 13.3 12 Este 23 Nordeste 0 -- -- 97
2019-09-22 22:00:00 13.9 14 Este 27 Este 0.8 -- -- 97
2019-09-22 21:00:00 14.1 9 Este 21 Este 0.6 -- -- 96
2019-09-22 20:00:00 14.1 11 Este 22 Este 0 -- -- 94
2019-09-22 19:00:00 17.4 6 Este 12 Este 0 -- -- 76
2019-09-22 18:00:00 20.4 6 Nordeste 14 Este 0 -- -- 69
2019-09-22 17:00:00 19.6 8 Nordeste 15 Este 0 -- -- 72
2019-09-22 16:00:00 17.5 5 Nordeste 19 Este 0 -- -- 84
2019-09-22 15:00:00 19.9 8 Nordeste 20 Este 0 -- -- 70
2019-09-22 14:00:00 19.3 8 Este 22 Este 0 -- -- 65
2019-09-22 13:00:00 19.3 9 Nordeste 21 Este 0 -- -- 62
2019-09-22 12:00:00 18 11 Nordeste 22 Nordeste 0 -- -- 70
2019-09-22 11:00:00 18.9 11 Nordeste 21 Este 0 -- -- 63
2019-09-22 10:00:00 19 8 Este 19 Nordeste 0 -- -- 45
2019-09-22 09:00:00 17.1 10 Este 18 Este 0 -- -- 42
2019-09-22 08:00:00 13.3 11 Este 23 Nordeste 0 -- -- 68
2019-09-22 07:00:00 12.7 8 Este 17 Este 0 -- -- 76
2019-09-22 06:00:00 14.6 8 Este 16 Este 0 -- -- 52
2019-09-22 05:00:00 14 7 Este 13 Nordeste 0 -- -- 52
2019-09-22 04:00:00 14.4 9 Nordeste 15 Este 0 -- -- 39
2019-09-22 03:00:00 15.2 5 Nordeste 16 Nordeste 0 -- -- 30
2019-09-22 02:00:00 13.2 9 Nordeste 13 Nordeste 0 -- -- 57
2019-09-22 01:00:00 13.9 6 Nordeste 11 Este 0 -- -- 47
2019-09-22 00:00:00 13.8 0 Calma 5 Nordeste 0 -- -- 44